Time;durP1;ratioP1;P1;durP2;ratioP2;P2;SDS_P1;SDS_P2;PMS_P1;PMS_P2;Temp;Humidity;BMP_temperature;BMP_pressure;BME280_temperature;BME280_humidity;BME280_pressure;Samples;Min_cycle;Max_cycle;Signal;HPM_P1;HPM_P2
2023/03/30 00:00:00;;;;;;;18.05;6.60;;;;;;;;;;4991094;28;20026;-70
2023/03/30 00:02:29;;;;;;;18.65;6.18;;;;;;;;;;4990996;28;20498;-70
2023/03/30 00:05:01;;;;;;;15.75;6.10;;;;;;;;;;4991025;28;20397;-70
2023/03/30 00:07:29;;;;;;;14.07;5.55;;;;;;;;;;4991049;28;20508;-69
2023/03/30 00:09:54;;;;;;;14.02;5.35;;;;;;;;;;4991208;28;20030;-69
2023/03/30 00:12:19;;;;;;;10.75;5.10;;;;;;;;;;4991162;28;20145;-70
2023/03/30 00:14:46;;;;;;;13.80;5.13;;;;;;;;;;4991123;28;20054;-70
2023/03/30 00:17:11;;;;;;;12.15;4.50;;;;;;;;;;4989951;28;20031;-69
2023/03/30 00:19:37;;;;;;;14.27;5.28;;;;;;;;;;4991026;28;20061;-69
2023/03/30 00:22:04;;;;;;;15.80;4.90;;;;;;;;;;4990938;28;20018;-69
2023/03/30 00:24:30;;;;;;;14.40;4.80;;;;;;;;;;4990894;28;20130;-69
2023/03/30 00:26:55;;;;;;;13.10;5.13;;;;;;;;;;4990812;28;20089;-69
2023/03/30 00:29:21;;;;;;;10.68;4.53;;;;;;;;;;4990853;28;20027;-69
2023/03/30 00:31:46;;;;;;;11.45;5.20;;;;;;;;;;4990719;28;20049;-69
2023/03/30 00:34:11;;;;;;;10.93;4.70;;;;;;;;;;4990898;28;20026;-70
2023/03/30 00:36:37;;;;;;;13.88;5.00;;;;;;;;;;4990525;28;20053;-70
2023/03/30 00:39:05;;;;;;;10.98;4.70;;;;;;;;;;4990606;28;20109;-70
2023/03/30 00:41:34;;;;;;;14.32;5.25;;;;;;;;;;4990822;28;20033;-70
2023/03/30 00:44:05;;;;;;;10.38;5.07;;;;;;;;;;4990484;28;20042;-70
2023/03/30 00:46:31;;;;;;;12.25;4.88;;;;;;;;;;4990668;28;20057;-70
2023/03/30 00:49:03;;;;;;;12.05;4.95;;;;;;;;;;4990555;28;20409;-70
2023/03/30 00:51:31;;;;;;;10.93;4.95;;;;;;;;;;4991276;28;20027;-70
2023/03/30 00:54:06;;;;;;;12.50;5.47;;;;;;;;;;4993427;28;20113;-70
2023/03/30 00:56:32;;;;;;;13.95;5.45;;;;;;;;;;4994419;28;20065;-70
2023/03/30 00:58:59;;;;;;;12.07;5.10;;;;;;;;;;4994259;28;20077;-69
2023/03/30 01:01:27;;;;;;;12.18;5.38;;;;;;;;;;4993203;28;20034;-70
2023/03/30 01:04:01;;;;;;;13.68;5.32;;;;;;;;;;4994576;28;20018;-70
2023/03/30 01:06:28;;;;;;;12.00;5.30;;;;;;;;;;4994243;28;20661;-70
2023/03/30 01:08:56;;;;;;;14.70;5.43;;;;;;;;;;4994292;28;20497;-70
2023/03/30 01:11:23;;;;;;;13.15;5.28;;;;;;;;;;4994211;28;20363;-70
2023/03/30 01:13:53;;;;;;;14.30;5.25;;;;;;;;;;4994053;28;20034;-70
2023/03/30 01:16:43;;;;;;;17.13;5.55;;;;;;;;;;4994217;28;20393;-70
2023/03/30 01:19:37;;;;;;;13.07;5.00;;;;;;;;;;4992789;28;20038;-70
2023/03/30 01:22:20;;;;;;;16.70;5.13;;;;;;;;;;4994116;28;20065;-70
2023/03/30 01:24:55;;;;;;;13.88;5.45;;;;;;;;;;4994086;28;20077;-69
2023/03/30 01:27:52;;;;;;;18.35;6.10;;;;;;;;;;4993931;28;20088;-70
2023/03/30 01:30:47;;;;;;;18.25;5.47;;;;;;;;;;4970536;28;20453;-69
2023/03/30 01:33:30;;;;;;;17.40;5.15;;;;;;;;;;4983787;28;20538;-69
2023/03/30 01:36:22;;;;;;;13.52;5.22;;;;;;;;;;4993756;28;20031;-69
2023/03/30 01:39:09;;;;;;;17.45;5.15;;;;;;;;;;4993808;28;20022;-70
2023/03/30 01:41:44;;;;;;;13.43;5.03;;;;;;;;;;4993846;28;20058;-69
2023/03/30 01:44:28;;;;;;;15.50;5.15;;;;;;;;;;4992243;28;20026;-69
2023/03/30 01:47:04;;;;;;;22.88;5.55;;;;;;;;;;4993513;28;20563;-69
2023/03/30 01:49:56;;;;;;;15.30;4.28;;;;;;;;;;4993485;28;20449;-69
2023/03/30 01:52:39;;;;;;;15.23;4.63;;;;;;;;;;4992053;28;20402;-70
2023/03/30 01:55:11;;;;;;;12.90;4.45;;;;;;;;;;4993511;28;20044;-70
2023/03/30 01:57:45;;;;;;;13.63;4.35;;;;;;;;;;4993411;28;20034;-70
2023/03/30 02:00:16;;;;;;;11.65;4.45;;;;;;;;;;4992216;28;20133;-69
2023/03/30 02:02:47;;;;;;;14.55;4.30;;;;;;;;;;4993465;28;20037;-69
2023/03/30 02:05:16;;;;;;;12.80;4.00;;;;;;;;;;4993202;28;20031;-70
2023/03/30 02:07:46;;;;;;;12.20;4.05;;;;;;;;;;4993111;28;20118;-70
2023/03/30 02:10:15;;;;;;;12.27;3.83;;;;;;;;;;4993192;28;20026;-70
2023/03/30 02:12:41;;;;;;;12.45;4.10;;;;;;;;;;4993336;28;20023;-69
2023/03/30 02:15:09;;;;;;;10.48;3.92;;;;;;;;;;4993105;28;20449;-70
2023/03/30 02:17:36;;;;;;;12.63;4.03;;;;;;;;;;4993080;28;20041;-70
2023/03/30 02:20:07;;;;;;;11.90;4.00;;;;;;;;;;4992901;28;20041;-69
2023/03/30 02:22:33;;;;;;;10.60;3.63;;;;;;;;;;4992766;28;20118;-70
2023/03/30 02:24:59;;;;;;;13.13;3.92;;;;;;;;;;4992856;28;20109;-69
2023/03/30 02:27:26;;;;;;;11.15;3.50;;;;;;;;;;4992929;28;20022;-69
2023/03/30 02:29:51;;;;;;;15.60;4.20;;;;;;;;;;4991545;28;20069;-69
2023/03/30 02:32:19;;;;;;;11.77;4.00;;;;;;;;;;4992840;28;20620;-69
2023/03/30 02:35:28;;;;;;;16.00;3.80;;;;;;;;;;4992801;28;20045;-70
2023/03/30 02:38:27;;;;;;;12.48;3.70;;;;;;;;;;4991282;28;20367;-70
2023/03/30 02:41:07;;;;;;;8.40;3.28;;;;;;;;;;4992633;28;20109;-70
2023/03/30 02:43:42;;;;;;;11.20;3.42;;;;;;;;;;4992472;28;20026;-69
2023/03/30 02:46:20;;;;;;;10.18;3.40;;;;;;;;;;4992466;28;20440;-69
2023/03/30 02:49:10;;;;;;;10.13;3.55;;;;;;;;;;4992567;28;20026;-70
2023/03/30 02:51:49;;;;;;;9.05;3.15;;;;;;;;;;4992456;28;20027;-70
2023/03/30 02:54:39;;;;;;;8.50;3.28;;;;;;;;;;4992512;28;20034;-69
2023/03/30 02:57:08;;;;;;;9.23;3.15;;;;;;;;;;4992453;28;20069;-69
2023/03/30 02:59:46;;;;;;;8.25;3.40;;;;;;;;;;4991953;28;20089;-69
2023/03/30 03:02:23;;;;;;;7.75;3.30;;;;;;;;;;4992018;28;20030;-69
2023/03/30 03:04:51;;;;;;;8.43;3.13;;;;;;;;;;4990431;28;20026;-69
2023/03/30 03:07:18;;;;;;;11.13;3.28;;;;;;;;;;4992029;28;20110;-70
2023/03/30 03:09:44;;;;;;;8.40;3.20;;;;;;;;;;4991926;28;20057;-69
2023/03/30 03:12:09;;;;;;;9.48;3.00;;;;;;;;;;4992139;28;20389;-69
2023/03/30 03:14:35;;;;;;;8.45;3.17;;;;;;;;;;4991459;28;20051;-69
2023/03/30 03:17:01;;;;;;;9.20;3.08;;;;;;;;;;4990803;28;20045;-68
2023/03/30 03:19:26;;;;;;;8.82;3.17;;;;;;;;;;4991765;28;20113;-69
2023/03/30 03:21:51;;;;;;;8.85;2.88;;;;;;;;;;4991796;28;20478;-69
2023/03/30 03:24:17;;;;;;;8.88;2.72;;;;;;;;;;4991923;28;20090;-69
2023/03/30 03:26:44;;;;;;;8.65;2.65;;;;;;;;;;4991854;28;20034;-69
2023/03/30 03:29:09;;;;;;;7.47;2.95;;;;;;;;;;4990611;28;20041;-69
2023/03/30 03:31:34;;;;;;;8.38;2.35;;;;;;;;;;4990470;28;20022;-69
2023/03/30 03:34:00;;;;;;;11.20;2.72;;;;;;;;;;4991561;28;20489;-69
2023/03/30 03:36:26;;;;;;;11.07;3.08;;;;;;;;;;4991416;28;20037;-70
2023/03/30 03:38:52;;;;;;;8.13;2.65;;;;;;;;;;4990019;28;20040;-69
2023/03/30 03:41:17;;;;;;;9.73;3.08;;;;;;;;;;4991492;28;20112;-69
2023/03/30 03:43:42;;;;;;;9.73;2.90;;;;;;;;;;4991438;28;20026;-69
2023/03/30 03:46:08;;;;;;;8.50;3.08;;;;;;;;;;4991591;28;20393;-69
2023/03/30 03:48:33;;;;;;;10.02;2.90;;;;;;;;;;4991570;28;20031;-69
2023/03/30 03:50:59;;;;;;;8.15;3.00;;;;;;;;;;4991123;28;20028;-69
2023/03/30 03:53:26;;;;;;;13.05;2.95;;;;;;;;;;4989953;28;20052;-69
2023/03/30 03:55:53;;;;;;;9.55;2.90;;;;;;;;;;4991255;28;20038;-69
2023/03/30 03:58:18;;;;;;;8.75;2.88;;;;;;;;;;4991306;28;20113;-69
2023/03/30 04:00:43;;;;;;;10.68;2.80;;;;;;;;;;4991221;28;20105;-69
2023/03/30 04:03:11;;;;;;;11.07;2.83;;;;;;;;;;4991372;28;20054;-69
2023/03/30 04:05:37;;;;;;;10.45;3.05;;;;;;;;;;4991239;28;20113;-69
2023/03/30 04:08:02;;;;;;;8.10;2.90;;;;;;;;;;4991014;28;20480;-69
2023/03/30 04:10:28;;;;;;;11.35;2.75;;;;;;;;;;4990750;28;20489;-69
2023/03/30 04:12:55;;;;;;;8.77;2.65;;;;;;;;;;4991060;28;20050;-70
2023/03/30 04:15:21;;;;;;;9.30;3.00;;;;;;;;;;4990814;28;20050;-69
2023/03/30 04:17:48;;;;;;;10.20;2.90;;;;;;;;;;4991157;28;20438;-69
2023/03/30 04:20:14;;;;;;;7.63;2.65;;;;;;;;;;4990805;28;20023;-69
2023/03/30 04:22:45;;;;;;;12.00;2.85;;;;;;;;;;4990763;28;20022;-69
2023/03/30 04:25:13;;;;;;;9.63;2.80;;;;;;;;;;4989440;28;20474;-69
2023/03/30 04:27:41;;;;;;;7.43;2.65;;;;;;;;;;4989941;28;20118;-69
2023/03/30 04:30:08;;;;;;;7.93;2.67;;;;;;;;;;4990605;28;20117;-69
2023/03/30 04:32:33;;;;;;;8.90;2.55;;;;;;;;;;4990887;28;20036;-69
2023/03/30 04:35:00;;;;;;;9.50;3.10;;;;;;;;;;4990906;28;20026;-69
2023/03/30 04:37:29;;;;;;;7.63;2.53;;;;;;;;;;4990606;28;20026;-69
2023/03/30 04:39:58;;;;;;;9.20;2.80;;;;;;;;;;4990647;28;20030;-69
2023/03/30 04:42:33;;;;;;;10.30;2.55;;;;;;;;;;4989424;28;20022;-69
2023/03/30 04:45:03;;;;;;;7.07;2.78;;;;;;;;;;4990564;28;20026;-69
2023/03/30 04:47:29;;;;;;;10.07;3.00;;;;;;;;;;4990443;28;20036;-69
2023/03/30 04:49:54;;;;;;;10.13;3.20;;;;;;;;;;4990407;28;20026;-69
2023/03/30 04:52:20;;;;;;;7.57;2.58;;;;;;;;;;4990574;28;20171;-69
2023/03/30 04:54:46;;;;;;;10.52;3.00;;;;;;;;;;4990753;28;20109;-69
2023/03/30 04:57:15;;;;;;;6.90;2.50;;;;;;;;;;4990704;28;20054;-68
2023/03/30 04:59:43;;;;;;;7.40;2.60;;;;;;;;;;4990224;28;20615;-69
2023/03/30 05:02:10;;;;;;;8.18;2.75;;;;;;;;;;4990556;28;20053;-69
2023/03/30 05:04:36;;;;;;;11.48;2.90;;;;;;;;;;4990494;28;20030;-69
2023/03/30 05:07:01;;;;;;;10.57;2.85;;;;;;;;;;4989021;28;20038;-69
2023/03/30 05:09:27;;;;;;;6.60;2.50;;;;;;;;;;4990352;28;20026;-69
2023/03/30 05:11:53;;;;;;;11.13;2.97;;;;;;;;;;4990453;28;20022;-69
2023/03/30 05:14:18;;;;;;;9.07;2.92;;;;;;;;;;4990248;28;20049;-68
2023/03/30 05:16:43;;;;;;;6.47;2.65;;;;;;;;;;4990421;28;20057;-69
2023/03/30 05:19:09;;;;;;;12.55;2.72;;;;;;;;;;4990373;28;20026;-69
2023/03/30 05:21:34;;;;;;;8.77;2.90;;;;;;;;;;4989857;28;20371;-69
2023/03/30 05:24:00;;;;;;;8.93;3.05;;;;;;;;;;4990279;28;20027;-69
2023/03/30 05:26:26;;;;;;;8.52;2.65;;;;;;;;;;4990323;28;20105;-69
2023/03/30 05:28:52;;;;;;;12.98;2.90;;;;;;;;;;4990362;28;20474;-69
2023/03/30 05:31:18;;;;;;;12.88;2.83;;;;;;;;;;4990043;28;20481;-69
2023/03/30 05:33:44;;;;;;;9.30;3.15;;;;;;;;;;4990194;28;20113;-69
2023/03/30 05:36:10;;;;;;;11.93;3.13;;;;;;;;;;4990079;28;20039;-69
2023/03/30 05:38:35;;;;;;;8.70;2.83;;;;;;;;;;4992223;28;20023;-69
2023/03/30 05:41:01;;;;;;;11.95;2.88;;;;;;;;;;4993478;28;20486;-69
2023/03/30 05:43:27;;;;;;;11.68;2.92;;;;;;;;;;4993819;28;20030;-69
2023/03/30 05:45:52;;;;;;;8.65;2.67;;;;;;;;;;4993673;28;20045;-69
2023/03/30 05:48:18;;;;;;;9.88;3.05;;;;;;;;;;4993668;28;20030;-69
2023/03/30 05:50:46;;;;;;;8.77;2.72;;;;;;;;;;4993207;28;20026;-69
2023/03/30 05:53:11;;;;;;;8.98;2.90;;;;;;;;;;4993543;28;20054;-69
2023/03/30 05:55:37;;;;;;;8.82;2.67;;;;;;;;;;4993516;28;20073;-69
2023/03/30 05:58:02;;;;;;;11.20;3.35;;;;;;;;;;4993369;28;20088;-69
2023/03/30 06:00:32;;;;;;;9.13;3.00;;;;;;;;;;4993264;28;20034;-69
2023/03/30 06:02:58;;;;;;;12.60;3.00;;;;;;;;;;4993434;28;20084;-69
2023/03/30 06:05:23;;;;;;;9.43;2.95;;;;;;;;;;4993306;28;20042;-69
2023/03/30 06:07:49;;;;;;;7.97;2.90;;;;;;;;;;4993275;28;20480;-69
2023/03/30 06:10:15;;;;;;;13.32;2.80;;;;;;;;;;4993133;28;20030;-69
2023/03/30 06:12:40;;;;;;;11.10;3.58;;;;;;;;;;4992964;28;20162;-69
2023/03/30 06:15:07;;;;;;;10.50;3.13;;;;;;;;;;4993020;28;20049;-69
2023/03/30 06:17:34;;;;;;;9.73;2.78;;;;;;;;;;4993204;28;20018;-69
2023/03/30 06:20:00;;;;;;;7.90;2.60;;;;;;;;;;4992935;28;20030;-69
2023/03/30 06:22:25;;;;;;;8.43;3.10;;;;;;;;;;4991476;28;20034;-69
2023/03/30 06:24:51;;;;;;;6.90;2.72;;;;;;;;;;4992962;28;20038;-69
2023/03/30 06:27:16;;;;;;;12.48;3.03;;;;;;;;;;4992971;28;20530;-69
2023/03/30 06:29:42;;;;;;;9.27;2.55;;;;;;;;;;4991391;28;20033;-69
2023/03/30 06:32:07;;;;;;;8.10;2.60;;;;;;;;;;4992529;28;20106;-69
2023/03/30 06:34:33;;;;;;;8.10;2.83;;;;;;;;;;4992849;28;20034;-68
2023/03/30 06:36:58;;;;;;;9.77;2.78;;;;;;;;;;4992781;28;20065;-69
2023/03/30 06:39:24;;;;;;;8.82;2.50;;;;;;;;;;4994046;28;20085;-69
2023/03/30 06:41:50;;;;;;;7.35;2.72;;;;;;;;;;4996513;28;20302;-72
2023/03/30 06:44:15;;;;;;;5.95;2.50;;;;;;;;;;4999035;28;20030;-69
2023/03/30 06:46:41;;;;;;;5.60;2.75;;;;;;;;;;5003072;28;20341;-69
2023/03/30 06:49:07;;;;;;;8.43;2.67;;;;;;;;;;5002078;28;20026;-69
2023/03/30 06:51:36;;;;;;;5.75;2.35;;;;;;;;;;5002603;28;20026;-69
2023/03/30 06:54:02;;;;;;;8.43;2.70;;;;;;;;;;5002776;28;20053;-73
2023/03/30 06:56:28;;;;;;;6.50;2.80;;;;;;;;;;5002896;28;20310;-71
2023/03/30 06:58:53;;;;;;;8.05;2.65;;;;;;;;;;5002772;28;20042;-72
2023/03/30 07:01:19;;;;;;;10.50;2.90;;;;;;;;;;5003113;28;20052;-71
2023/03/30 07:03:44;;;;;;;10.30;2.80;;;;;;;;;;5003103;28;20022;-72
2023/03/30 07:06:11;;;;;;;10.02;3.28;;;;;;;;;;5002270;28;20038;-70
2023/03/30 07:08:37;;;;;;;9.07;3.25;;;;;;;;;;5002808;28;20032;-72
2023/03/30 07:11:04;;;;;;;9.93;2.78;;;;;;;;;;5001611;28;20076;-70
2023/03/30 07:13:29;;;;;;;9.65;2.80;;;;;;;;;;5000350;28;20485;-69
2023/03/30 07:15:55;;;;;;;10.82;3.08;;;;;;;;;;4998658;28;20054;-69
2023/03/30 07:18:21;;;;;;;7.00;2.70;;;;;;;;;;5001693;28;20094;-70
2023/03/30 07:20:46;;;;;;;10.90;3.45;;;;;;;;;;5002106;28;20059;-69
2023/03/30 07:23:12;;;;;;;14.73;3.38;;;;;;;;;;5002758;28;20033;-69
2023/03/30 07:25:40;;;;;;;11.10;3.35;;;;;;;;;;5000875;28;20034;-70
2023/03/30 07:28:05;;;;;;;10.13;3.20;;;;;;;;;;5003060;28;20085;-69
2023/03/30 07:30:34;;;;;;;9.27;3.00;;;;;;;;;;5002965;28;20026;-70
2023/03/30 07:33:00;;;;;;;10.88;3.45;;;;;;;;;;5001279;28;20097;-69
2023/03/30 07:35:26;;;;;;;13.57;3.30;;;;;;;;;;5002888;28;20076;-69
2023/03/30 07:37:51;;;;;;;10.00;2.97;;;;;;;;;;5001262;28;20215;-69
2023/03/30 07:40:18;;;;;;;7.18;2.70;;;;;;;;;;5002001;28;20046;-70
2023/03/30 07:42:44;;;;;;;12.75;3.22;;;;;;;;;;5000402;28;20022;-70
2023/03/30 07:45:10;;;;;;;8.38;3.03;;;;;;;;;;4998511;28;20080;-70
2023/03/30 07:47:36;;;;;;;9.85;2.97;;;;;;;;;;4981611;28;20031;-72
2023/03/30 07:50:02;;;;;;;9.43;3.00;;;;;;;;;;4981918;28;20325;-73
2023/03/30 07:52:27;;;;;;;9.02;2.70;;;;;;;;;;4980978;28;20027;-73
2023/03/30 07:54:53;;;;;;;8.68;2.60;;;;;;;;;;4980995;28;20073;-70
2023/03/30 07:57:19;;;;;;;8.48;2.67;;;;;;;;;;4995263;28;20034;-72
2023/03/30 07:59:45;;;;;;;9.65;2.95;;;;;;;;;;4981980;28;20055;-71
2023/03/30 08:02:13;;;;;;;9.45;3.10;;;;;;;;;;5013815;28;20046;-71
2023/03/30 08:04:39;;;;;;;10.90;2.92;;;;;;;;;;5000726;23;20121;-69
2023/03/30 08:07:04;;;;;;;12.35;3.10;;;;;;;;;;5000546;28;20044;-70
2023/03/30 08:09:30;;;;;;;10.85;2.95;;;;;;;;;;4995130;28;20058;-71
2023/03/30 08:11:56;;;;;;;8.43;3.55;;;;;;;;;;5001274;28;20034;-69
2023/03/30 08:14:22;;;;;;;11.68;3.17;;;;;;;;;;5001434;28;20058;-69
2023/03/30 08:16:48;;;;;;;9.30;3.00;;;;;;;;;;4998863;28;20452;-71
2023/03/30 08:19:13;;;;;;;7.82;2.60;;;;;;;;;;4981773;28;20031;-70
2023/03/30 08:21:39;;;;;;;10.32;3.00;;;;;;;;;;4981505;28;20094;-70
2023/03/30 08:24:04;;;;;;;8.55;2.92;;;;;;;;;;4981643;28;20367;-71
2023/03/30 08:26:30;;;;;;;10.13;2.97;;;;;;;;;;4989166;28;20341;-70
2023/03/30 08:28:56;;;;;;;10.60;3.22;;;;;;;;;;4998721;28;20037;-70
2023/03/30 08:31:21;;;;;;;9.82;3.33;;;;;;;;;;5000501;28;20023;-71
2023/03/30 08:33:48;;;;;;;10.85;3.00;;;;;;;;;;4998555;28;20314;-70
2023/03/30 08:36:13;;;;;;;12.05;3.00;;;;;;;;;;4981341;28;20042;-71
2023/03/30 08:38:40;;;;;;;13.98;2.90;;;;;;;;;;4980458;28;20042;-71
2023/03/30 08:41:20;;;;;;;8.43;2.90;;;;;;;;;;4981227;28;20095;-70
2023/03/30 08:43:48;;;;;;;7.07;3.22;;;;;;;;;;4977631;28;20442;-70
2023/03/30 08:46:17;;;;;;;11.93;2.90;;;;;;;;;;4979040;28;20037;-69
2023/03/30 08:48:45;;;;;;;9.70;2.67;;;;;;;;;;4981429;28;20023;-69
2023/03/30 08:51:19;;;;;;;11.85;2.55;;;;;;;;;;4980250;28;20034;-69
2023/03/30 08:53:44;;;;;;;10.85;3.10;;;;;;;;;;4980043;28;20102;-71
2023/03/30 08:56:17;;;;;;;8.00;2.40;;;;;;;;;;4979448;28;20031;-69
2023/03/30 08:58:54;;;;;;;6.57;2.55;;;;;;;;;;4979832;28;20019;-68
2023/03/30 09:01:50;;;;;;;8.88;2.42;;;;;;;;;;4979369;28;20030;-70
2023/03/30 09:04:24;;;;;;;12.60;2.83;;;;;;;;;;4962740;28;20074;-69
2023/03/30 09:06:56;;;;;;;9.00;2.70;;;;;;;;;;4971014;28;20093;-69
2023/03/30 09:09:26;;;;;;;10.45;2.35;;;;;;;;;;4973061;28;20049;-72
2023/03/30 09:12:33;;;;;;;9.85;2.33;;;;;;;;;;4969418;28;20031;-81
2023/03/30 09:15:07;;;;;;;9.73;2.60;;;;;;;;;;4969543;28;20050;-76
2023/03/30 09:17:37;;;;;;;14.57;2.97;;;;;;;;;;4979167;28;20058;-76
2023/03/30 09:20:19;;;;;;;10.15;2.60;;;;;;;;;;4975742;28;20023;-74
2023/03/30 09:22:47;;;;;;;17.48;2.47;;;;;;;;;;4976289;28;20622;-78
2023/03/30 09:25:26;;;;;;;22.27;2.67;;;;;;;;;;4974490;28;20038;-80
2023/03/30 09:28:25;;;;;;;9.77;2.30;;;;;;;;;;4974013;28;20065;-77
2023/03/30 09:30:55;;;;;;;8.95;2.35;;;;;;;;;;4977834;28;20031;-78
2023/03/30 09:33:33;;;;;;;9.07;2.40;;;;;;;;;;4975743;28;20034;-72
2023/03/30 09:35:58;;;;;;;9.55;2.10;;;;;;;;;;4992023;28;20030;-72
2023/03/30 09:38:24;;;;;;;11.43;2.50;;;;;;;;;;4998662;28;20027;-72
2023/03/30 09:41:05;;;;;;;8.20;1.92;;;;;;;;;;5003363;28;20026;-72
2023/03/30 09:43:44;;;;;;;15.75;2.30;;;;;;;;;;5002761;28;20025;-72
2023/03/30 09:46:12;;;;;;;8.27;1.92;;;;;;;;;;4995262;28;20031;-73
2023/03/30 09:48:43;;;;;;;10.00;1.98;;;;;;;;;;4983566;28;20035;-71
2023/03/30 09:51:24;;;;;;;9.32;1.88;;;;;;;;;;4983228;28;20038;-73
2023/03/30 09:54:12;;;;;;;8.68;1.83;;;;;;;;;;4983952;28;20346;-73
2023/03/30 09:56:45;;;;;;;14.43;1.83;;;;;;;;;;4983865;28;20106;-72
2023/03/30 09:59:26;;;;;;;12.70;2.13;;;;;;;;;;4984037;28;20039;-72
2023/03/30 10:01:52;;;;;;;8.23;2.00;;;;;;;;;;4983093;28;20107;-72
2023/03/30 10:04:17;;;;;;;10.98;2.10;;;;;;;;;;4983722;28;20046;-72
2023/03/30 10:06:48;;;;;;;10.00;1.85;;;;;;;;;;4977184;28;20524;-73
2023/03/30 10:09:16;;;;;;;8.73;2.08;;;;;;;;;;4979276;28;20034;-72
2023/03/30 10:11:50;;;;;;;8.90;1.90;;;;;;;;;;4979570;28;20065;-71
2023/03/30 10:14:24;;;;;;;12.90;2.10;;;;;;;;;;4980182;28;20031;-74
2023/03/30 10:16:50;;;;;;;11.57;2.17;;;;;;;;;;4971239;28;20027;-71
2023/03/30 10:19:18;;;;;;;12.95;2.40;;;;;;;;;;4972082;28;20668;-71
2023/03/30 10:21:47;;;;;;;10.35;2.00;;;;;;;;;;4972113;28;20491;-70
2023/03/30 10:24:12;;;;;;;11.80;2.30;;;;;;;;;;4970763;28;20035;-70
2023/03/30 10:26:38;;;;;;;10.10;2.10;;;;;;;;;;4972181;28;20090;-72
2023/03/30 10:29:06;;;;;;;14.90;2.00;;;;;;;;;;4972821;28;20027;-68
2023/03/30 10:31:36;;;;;;;14.88;2.20;;;;;;;;;;4971921;28;20194;-67
2023/03/30 10:34:04;;;;;;;11.15;2.38;;;;;;;;;;4972637;28;20023;-67
2023/03/30 10:36:37;;;;;;;11.50;1.92;;;;;;;;;;4972081;28;20109;-70
2023/03/30 10:39:21;;;;;;;10.05;2.20;;;;;;;;;;4972429;28;20030;-68
2023/03/30 10:41:48;;;;;;;9.52;2.00;;;;;;;;;;4972184;28;20495;-68
2023/03/30 10:44:23;;;;;;;10.05;2.17;;;;;;;;;;4972559;28;20093;-67
2023/03/30 10:46:52;;;;;;;11.02;2.10;;;;;;;;;;4972309;28;20110;-70
2023/03/30 10:49:43;;;;;;;16.15;2.45;;;;;;;;;;4972422;28;20134;-71
2023/03/30 10:52:30;;;;;;;13.27;2.13;;;;;;;;;;4971925;28;20045;-71
2023/03/30 10:55:06;;;;;;;8.07;1.90;;;;;;;;;;4972352;28;20038;-74
2023/03/30 10:58:00;;;;;;;10.52;2.33;;;;;;;;;;4972124;28;20027;-73
2023/03/30 11:00:44;;;;;;;10.13;1.80;;;;;;;;;;4968043;28;20038;-71
2023/03/30 11:03:21;;;;;;;10.45;2.28;;;;;;;;;;4974968;28;20051;-75
2023/03/30 11:05:51;;;;;;;8.88;2.17;;;;;;;;;;4972279;28;20108;-75
2023/03/30 11:08:31;;;;;;;13.23;2.22;;;;;;;;;;4972213;28;20110;-70
2023/03/30 11:10:58;;;;;;;10.90;2.22;;;;;;;;;;4971967;28;20027;-79
2023/03/30 11:13:33;;;;;;;9.00;2.20;;;;;;;;;;4971628;28;20103;-69
2023/03/30 11:16:04;;;;;;;9.93;2.60;;;;;;;;;;4971711;28;20026;-75
2023/03/30 11:18:32;;;;;;;13.98;2.40;;;;;;;;;;4971839;28;20517;-68
2023/03/30 11:21:07;;;;;;;11.25;2.20;;;;;;;;;;4971521;28;20093;-74
2023/03/30 11:23:43;;;;;;;11.50;2.50;;;;;;;;;;4971523;28;20023;-69
2023/03/30 11:26:12;;;;;;;9.85;1.80;;;;;;;;;;4971587;28;20418;-66
2023/03/30 11:28:54;;;;;;;11.00;2.17;;;;;;;;;;4971530;28;20101;-67
2023/03/30 11:31:44;;;;;;;12.48;2.20;;;;;;;;;;4971620;28;20058;-66
2023/03/30 11:34:58;;;;;;;16.17;2.95;;;;;;;;;;4971267;28;20068;-70
2023/03/30 11:37:36;;;;;;;12.55;2.38;;;;;;;;;;4968641;28;20113;-68
2023/03/30 11:40:21;;;;;;;10.77;2.60;;;;;;;;;;4978895;28;20095;-65
2023/03/30 11:42:47;;;;;;;11.45;2.42;;;;;;;;;;4982663;28;20030;-66
2023/03/30 11:45:23;;;;;;;14.85;2.65;;;;;;;;;;4981296;28;20337;-65
2023/03/30 11:48:03;;;;;;;10.77;2.13;;;;;;;;;;4975566;28;20145;-66
2023/03/30 11:50:39;;;;;;;14.55;2.42;;;;;;;;;;4978404;28;20043;-64
2023/03/30 11:53:20;;;;;;;13.85;2.30;;;;;;;;;;4976395;28;20046;-67
2023/03/30 11:55:54;;;;;;;10.25;2.13;;;;;;;;;;4981318;28;20097;-70
2023/03/30 11:58:37;;;;;;;12.18;2.45;;;;;;;;;;4970074;28;20034;-67
2023/03/30 12:01:11;;;;;;;9.43;1.95;;;;;;;;;;4970611;28;20029;-66
2023/03/30 12:03:45;;;;;;;12.35;1.83;;;;;;;;;;4985837;28;20510;-66
2023/03/30 12:06:28;;;;;;;12.95;2.17;;;;;;;;;;4972533;28;20046;-66
2023/03/30 12:09:18;;;;;;;11.80;2.38;;;;;;;;;;4971377;28;20427;-69
2023/03/30 12:12:17;;;;;;;14.45;2.30;;;;;;;;;;4971047;28;20041;-68
2023/03/30 12:14:48;;;;;;;11.45;2.30;;;;;;;;;;4958827;28;20042;-69
2023/03/30 12:17:41;;;;;;;12.95;2.60;;;;;;;;;;4974854;28;20030;-70
2023/03/30 12:20:28;;;;;;;10.10;2.03;;;;;;;;;;4981619;28;20122;-71
2023/03/30 12:22:59;;;;;;;7.95;1.83;;;;;;;;;;4975329;28;20081;-67
2023/03/30 12:25:43;;;;;;;15.35;2.28;;;;;;;;;;4970464;28;20041;-69
2023/03/30 12:28:10;;;;;;;11.10;2.35;;;;;;;;;;4973588;28;20310;-65
2023/03/30 12:30:52;;;;;;;13.55;2.55;;;;;;;;;;4978202;28;20058;-68
2023/03/30 12:33:26;;;;;;;9.50;2.10;;;;;;;;;;4972236;28;20062;-66
2023/03/30 12:35:57;;;;;;;10.18;2.33;;;;;;;;;;4970943;28;20089;-65
2023/03/30 12:38:45;;;;;;;11.52;2.10;;;;;;;;;;4970979;28;20027;-65
2023/03/30 12:41:15;;;;;;;14.13;2.35;;;;;;;;;;4977676;28;20262;-69
2023/03/30 12:43:43;;;;;;;10.27;2.35;;;;;;;;;;4980284;28;20029;-73
2023/03/30 12:46:34;;;;;;;12.48;2.35;;;;;;;;;;4981719;28;20385;-72
2023/03/30 12:49:10;;;;;;;13.00;2.17;;;;;;;;;;4983644;28;20027;-73
2023/03/30 12:51:59;;;;;;;18.70;2.78;;;;;;;;;;4980522;28;20058;-72
2023/03/30 12:54:46;;;;;;;14.02;2.67;;;;;;;;;;4984521;28;20107;-76
2023/03/30 12:57:33;;;;;;;16.83;2.40;;;;;;;;;;4982967;28;20501;-74
2023/03/30 13:00:10;;;;;;;12.60;2.25;;;;;;;;;;4983142;28;20019;-72
2023/03/30 13:02:59;;;;;;;14.77;2.58;;;;;;;;;;4980337;28;20061;-70
2023/03/30 13:05:27;;;;;;;12.38;2.00;;;;;;;;;;4972360;28;20049;-70
2023/03/30 13:07:54;;;;;;;11.52;2.10;;;;;;;;;;4973217;28;20027;-71
2023/03/30 13:10:41;;;;;;;12.43;2.22;;;;;;;;;;4973582;28;20027;-70
2023/03/30 13:13:17;;;;;;;13.10;2.28;;;;;;;;;;4974381;28;20054;-70
2023/03/30 13:15:48;;;;;;;14.18;2.35;;;;;;;;;;4973215;28;20519;-73
2023/03/30 13:18:13;;;;;;;;;;;;;;;;;;4973578;28;20405;-72
2023/03/30 13:20:44;;;;;;;10.63;2.03;;;;;;;;;;4973061;28;20374;-70
2023/03/30 13:23:11;;;;;;;11.13;2.20;;;;;;;;;;4971247;28;20281;-71
2023/03/30 13:25:38;;;;;;;12.73;2.58;;;;;;;;;;4972936;28;20545;-71
2023/03/30 13:28:42;;;;;;;10.63;2.05;;;;;;;;;;4973824;28;20051;-71
2023/03/30 13:31:38;;;;;;;10.52;2.22;;;;;;;;;;4974724;28;20082;-72
2023/03/30 13:34:45;;;;;;;9.73;2.00;;;;;;;;;;4973705;28;20034;-71
2023/03/30 13:37:26;;;;;;;10.75;2.10;;;;;;;;;;4973835;28;20121;-70
2023/03/30 13:39:54;;;;;;;9.90;2.20;;;;;;;;;;4974505;28;20031;-70
2023/03/30 13:42:36;;;;;;;12.70;2.00;;;;;;;;;;4974303;28;20549;-73
2023/03/30 13:45:40;;;;;;;15.25;2.53;;;;;;;;;;4974281;28;20118;-72
2023/03/30 13:48:05;;;;;;;14.55;2.58;;;;;;;;;;4970017;28;20038;-71
2023/03/30 13:50:33;;;;;;;14.23;2.47;;;;;;;;;;4974203;28;20038;-72
2023/03/30 13:53:07;;;;;;;11.55;2.20;;;;;;;;;;4974048;28;20077;-73
2023/03/30 13:55:37;;;;;;;12.95;2.50;;;;;;;;;;4973908;28;20078;-70
2023/03/30 13:58:06;;;;;;;10.95;2.80;;;;;;;;;;4973928;28;20033;-71
2023/03/30 14:00:42;;;;;;;10.32;2.22;;;;;;;;;;4973938;28;20027;-70
2023/03/30 14:03:31;;;;;;;13.55;2.67;;;;;;;;;;4973625;28;20047;-73
2023/03/30 14:06:01;;;;;;;10.10;2.42;;;;;;;;;;4973876;28;20418;-71
2023/03/30 14:08:26;;;;;;;10.63;2.30;;;;;;;;;;4973796;28;20479;-71
2023/03/30 14:10:53;;;;;;;9.75;2.22;;;;;;;;;;4973858;28;20026;-70
2023/03/30 14:13:20;;;;;;;12.45;2.20;;;;;;;;;;4972209;28;20109;-70
2023/03/30 14:15:49;;;;;;;8.82;2.20;;;;;;;;;;4971826;28;20391;-70
2023/03/30 14:18:22;;;;;;;13.35;2.10;;;;;;;;;;4972082;28;20102;-69
2023/03/30 14:20:47;;;;;;;10.10;2.20;;;;;;;;;;4971943;28;20043;-70
2023/03/30 14:23:27;;;;;;;12.23;2.30;;;;;;;;;;4971856;28;20027;-70
2023/03/30 14:25:58;;;;;;;7.75;2.05;;;;;;;;;;4971927;28;20054;-70
2023/03/30 14:28:25;;;;;;;;;;;;;;;;;;4973173;28;20094;-69
2023/03/30 14:31:03;;;;;;;14.25;2.53;;;;;;;;;;4973370;28;20017;-69
2023/03/30 14:33:29;;;;;;;10.43;2.20;;;;;;;;;;4971724;28;20113;-73
2023/03/30 14:35:56;;;;;;;12.55;2.47;;;;;;;;;;4973296;28;20110;-70
2023/03/30 14:38:23;;;;;;;10.52;2.17;;;;;;;;;;4973307;28;20037;-70
2023/03/30 14:40:50;;;;;;;11.70;2.50;;;;;;;;;;4973290;28;20391;-69
2023/03/30 14:43:20;;;;;;;11.07;2.38;;;;;;;;;;4973307;28;20031;-69
2023/03/30 14:45:46;;;;;;;;;;;;;;;;;;4973267;28;20033;-69
2023/03/30 14:48:21;;;;;;;11.48;2.47;;;;;;;;;;4987827;28;19914;-70
2023/03/30 14:50:47;;;;;;;12.45;2.50;;;;;;;;;;4973055;28;20034;-71
2023/03/30 14:53:13;;;;;;;19.45;2.72;;;;;;;;;;4972890;28;20019;-70
2023/03/30 14:55:39;;;;;;;8.15;2.08;;;;;;;;;;4971609;28;20521;-70
2023/03/30 14:58:05;;;;;;;10.55;2.50;;;;;;;;;;4973051;28;20034;-69
2023/03/30 15:00:30;;;;;;;13.75;2.33;;;;;;;;;;4972921;28;20554;-70